Time;durP1;ratioP1;P1;durP2;ratioP2;P2;SDS_P1;SDS_P2;PMS_P1;PMS_P2;Temp;Humidity;BMP_temperature;BMP_pressure;BME280_temperature;BME280_humidity;BME280_pressure;Samples;Min_cycle;Max_cycle;Signal;HPM_P1;HPM_P2
2021/12/07 00:01:54;;;;;;;11.35;7.15;;;2.00;18.00;;;;;;5116132;27;19966;-75
2021/12/07 00:04:22;;;;;;;11.20;7.78;;;2.00;17.90;;;;;;5117193;27;20083;-75
2021/12/07 00:06:50;;;;;;;11.80;7.70;;;2.00;18.10;;;;;;5117098;27;21567;-75
2021/12/07 00:09:24;;;;;;;10.85;7.68;;;2.00;17.70;;;;;;5113142;27;20043;-75
2021/12/07 00:11:52;;;;;;;12.95;7.80;;;1.90;19.60;;;;;;5078265;27;20107;-74
2021/12/07 00:14:24;;;;;;;12.02;7.63;;;2.00;19.20;;;;;;5110554;27;20070;-77
2021/12/07 00:16:55;;;;;;;13.48;8.40;;;2.00;18.10;;;;;;5096810;27;20047;-75
2021/12/07 00:19:24;;;;;;;11.00;7.28;;;2.00;18.40;;;;;;5105533;27;20125;-75
2021/12/07 00:21:53;;;;;;;11.27;7.50;;;2.00;17.80;;;;;;5114635;27;20047;-73
2021/12/07 00:24:21;;;;;;;10.45;7.00;;;1.90;18.60;;;;;;5117275;27;20562;-75
2021/12/07 00:26:49;;;;;;;9.07;6.80;;;2.00;17.90;;;;;;5115356;27;20039;-75
2021/12/07 00:29:18;;;;;;;11.23;6.82;;;2.00;17.20;;;;;;5106217;27;20046;-75
2021/12/07 00:32:08;;;;;;;11.35;7.25;;;2.10;17.80;;;;;;5113436;27;20046;-75
2021/12/07 00:34:55;;;;;;;11.75;6.32;;;2.00;17.70;;;;;;5110035;27;20035;-75
2021/12/07 00:37:25;;;;;;;9.45;7.20;;;2.00;18.10;;;;;;5116482;27;20604;-76
2021/12/07 00:39:53;;;;;;;12.95;6.88;;;2.00;19.50;;;;;;5098047;27;20055;-76
2021/12/07 00:42:21;;;;;;;11.63;7.93;;;2.00;20.70;;;;;;5115522;27;20384;-75
2021/12/07 00:44:50;;;;;;;8.65;5.45;;;2.10;18.50;;;;;;5115572;27;20134;-75
2021/12/07 00:47:20;;;;;;;8.93;4.75;;;2.20;17.30;;;;;;5116253;27;20077;-76
2021/12/07 00:49:48;;;;;;;7.95;3.90;;;2.20;14.90;;;;;;5109445;27;20130;-76
2021/12/07 00:52:15;;;;;;;5.45;3.60;;;2.40;13.90;;;;;;5119502;27;20150;-75
2021/12/07 00:54:44;;;;;;;7.90;3.67;;;2.40;13.30;;;;;;5117274;27;20055;-74
2021/12/07 00:57:12;;;;;;;6.18;3.45;;;2.40;15.60;;;;;;5117705;27;20075;-74
2021/12/07 00:59:40;;;;;;;4.97;3.47;;;2.30;16.80;;;;;;5113152;27;20074;-75
2021/12/07 01:02:08;;;;;;;5.45;3.80;;;2.20;19.10;;;;;;5117296;27;20761;-75
2021/12/07 01:04:38;;;;;;;7.68;3.72;;;2.20;21.60;;;;;;5093817;28;20043;-75
2021/12/07 01:07:17;;;;;;;7.38;2.92;;;2.10;24.00;;;;;;5113121;28;20039;-75
2021/12/07 01:24:39;;;;;;;4.35;3.17;;;2.10;24.60;;;;;;5110383;27;20043;-76
2021/12/07 01:26:31;;;;;;;6.28;4.13;;;2.10;27.00;;;;;;5075953;28;20124;-75
2021/12/07 01:28:59;;;;;;;5.55;4.00;;;2.10;27.10;;;;;;5092781;28;20039;-75
2021/12/07 01:31:34;;;;;;;5.90;4.07;;;2.20;28.00;;;;;;5115592;27;20039;-75
2021/12/07 01:34:18;;;;;;;5.85;4.03;;;2.20;27.50;;;;;;5115821;28;20478;-75
2021/12/07 01:37:07;;;;;;;5.85;4.07;;;2.20;26.90;;;;;;5111215;27;20142;-75
2021/12/07 01:45:38;;;;;;;5.40;3.83;;;2.20;26.70;;;;;;5115477;27;20131;-75
2021/12/07 01:49:38;;;;;;;5.60;3.90;;;2.30;26.30;;;;;;5101593;28;20507;-74
2021/12/07 01:51:10;;;;;;;5.43;3.42;;;2.30;25.00;;;;;;5113968;27;20116;-75
2021/12/07 01:59:34;;;;;;;4.07;2.72;;;2.50;21.80;;;;;;5070123;28;20094;-74
2021/12/07 02:02:04;;;;;;;5.55;3.35;;;2.50;22.10;;;;;;5106354;27;20097;-75
2021/12/07 02:04:33;;;;;;;5.07;2.78;;;2.50;23.30;;;;;;5113969;27;20061;-76
2021/12/07 02:07:01;;;;;;;5.53;3.55;;;2.40;23.90;;;;;;5105921;27;20601;-76
2021/12/07 02:09:33;;;;;;;4.25;3.15;;;2.30;26.30;;;;;;5106031;27;20043;-76
2021/12/07 02:12:02;;;;;;;4.57;3.28;;;2.20;27.80;;;;;;5119310;27;20129;-76
2021/12/07 02:14:31;;;;;;;6.97;3.70;;;2.20;29.80;;;;;;5117899;27;20039;-76
2021/12/07 02:17:04;;;;;;;5.35;3.80;;;2.10;31.50;;;;;;5116110;27;20566;-76
2021/12/07 02:19:34;;;;;;;5.35;3.28;;;2.10;31.40;;;;;;5116928;27;20051;-76
2021/12/07 02:22:03;;;;;;;5.50;3.47;;;2.10;34.10;;;;;;5114681;27;20051;-76
2021/12/07 02:24:32;;;;;;;5.78;3.78;;;2.10;33.70;;;;;;5121871;27;20554;-76
2021/12/07 02:27:01;;;;;;;5.15;3.25;;;2.10;33.70;;;;;;5117191;27;20070;-76
2021/12/07 02:29:29;;;;;;;7.07;4.10;;;2.10;34.00;;;;;;5112632;27;20471;-74
2021/12/07 02:31:58;;;;;;;8.40;3.70;;;2.20;34.00;;;;;;5116773;27;20061;-75
2021/12/07 02:34:26;;;;;;;10.27;3.88;;;2.20;33.40;;;;;;5116460;27;21155;-75
2021/12/07 02:36:56;;;;;;;7.90;4.40;;;2.20;33.10;;;;;;5121923;27;20062;-75
2021/12/07 02:39:31;;;;;;;6.72;3.58;;;2.20;32.90;;;;;;5117383;27;20136;-75
2021/12/07 02:41:59;;;;;;;5.60;3.50;;;2.20;32.70;;;;;;5124028;27;20051;-75
2021/12/07 02:44:27;;;;;;;5.47;3.63;;;2.30;33.40;;;;;;5118903;27;20092;-75
2021/12/07 02:46:55;;;;;;;5.95;3.55;;;2.30;33.90;;;;;;5101795;27;20039;-75
2021/12/07 02:49:24;;;;;;;5.60;3.58;;;2.30;34.10;;;;;;5112215;27;20043;-74
2021/12/07 02:51:52;;;;;;;5.32;3.25;;;2.30;34.10;;;;;;5104938;27;20058;-75
2021/12/07 02:54:21;;;;;;;5.18;3.63;;;2.40;34.30;;;;;;5111984;27;20134;-75
2021/12/07 02:56:51;;;;;;;5.00;3.30;;;2.40;34.30;;;;;;5121046;27;20481;-75
2021/12/07 02:59:21;;;;;;;5.28;3.40;;;2.40;34.70;;;;;;5122057;27;20684;-75
2021/12/07 03:01:57;;;;;;;4.38;3.20;;;2.50;34.70;;;;;;5119458;27;20035;-75
2021/12/07 03:04:31;;;;;;;5.43;3.38;;;2.40;34.10;;;;;;5105128;27;20055;-75
2021/12/07 03:07:09;;;;;;;7.03;2.88;;;2.40;34.20;;;;;;5125632;27;20043;-75
2021/12/07 03:25:45;;;;;;;4.00;2.60;;;2.40;35.80;;;;;;5116802;27;20154;-76
2021/12/07 03:26:44;;;;;;;7.43;2.53;;;2.60;38.10;;;;;;5123198;27;20130;-76
2021/12/07 03:29:14;;;;;;;3.70;2.10;;;2.60;38.30;;;;;;5114465;27;20145;-76
2021/12/07 03:31:42;;;;;;;4.55;2.58;;;2.60;38.70;;;;;;5128270;27;20119;-76
2021/12/07 03:34:10;;;;;;;6.18;3.00;;;2.60;39.00;;;;;;5105733;27;20059;-76
2021/12/07 03:36:40;;;;;;;4.63;2.38;;;2.50;38.50;;;;;;5117881;27;20048;-75
2021/12/07 03:39:09;;;;;;;4.63;3.00;;;2.50;39.10;;;;;;5122643;27;20903;-75
2021/12/07 03:41:37;;;;;;;3.05;2.00;;;2.50;39.10;;;;;;5097286;28;20046;-75
2021/12/07 03:44:05;;;;;;;6.78;2.22;;;2.50;40.00;;;;;;5124227;27;20043;-76
2021/12/07 03:46:35;;;;;;;3.97;2.53;;;2.50;40.10;;;;;;5115773;27;20047;-75
2021/12/07 03:49:04;;;;;;;5.38;2.40;;;2.50;40.10;;;;;;5106058;27;20044;-75
2021/12/07 03:51:32;;;;;;;3.53;2.13;;;2.50;40.10;;;;;;5119451;27;20061;-75
2021/12/07 03:54:00;;;;;;;4.55;2.72;;;2.50;40.10;;;;;;5113143;27;20048;-75
2021/12/07 03:56:28;;;;;;;3.20;2.10;;;2.50;40.20;;;;;;5102851;27;20043;-75
2021/12/07 03:58:56;;;;;;;2.92;1.75;;;2.50;40.60;;;;;;5121373;27;20478;-75
2021/12/07 04:01:24;;;;;;;3.90;2.30;;;2.50;40.10;;;;;;5125166;27;20494;-75
2021/12/07 04:03:56;;;;;;;3.63;2.28;;;2.50;40.70;;;;;;5123616;27;20444;-75
2021/12/07 04:06:24;;;;;;;5.78;1.88;;;2.50;41.10;;;;;;5111161;27;20071;-74
2021/12/07 04:08:52;;;;;;;3.63;1.85;;;2.50;40.40;;;;;;5105958;27;20597;-74
2021/12/07 04:11:20;;;;;;;4.68;2.00;;;2.50;41.30;;;;;;5112882;27;20042;-74
2021/12/07 04:13:48;;;;;;;2.78;1.65;;;2.50;41.30;;;;;;5120739;27;20134;-73
2021/12/07 04:16:18;;;;;;;3.50;2.00;;;2.50;41.40;;;;;;5114624;27;20759;-75
2021/12/07 04:18:47;;;;;;;4.78;2.10;;;2.60;41.80;;;;;;5120491;27;20039;-75
2021/12/07 04:21:17;;;;;;;5.38;2.20;;;2.60;41.70;;;;;;5120031;27;20145;-75
2021/12/07 04:23:45;;;;;;;3.70;1.70;;;2.60;41.70;;;;;;5123533;27;20431;-75
2021/12/07 04:26:15;;;;;;;5.75;1.75;;;2.70;42.20;;;;;;5124330;27;20069;-75
2021/12/07 04:28:44;;;;;;;3.25;1.63;;;2.70;41.90;;;;;;5124656;27;20047;-76
2021/12/07 04:31:13;;;;;;;3.22;1.40;;;2.70;41.60;;;;;;5106727;27;20044;-76
2021/12/07 04:33:42;;;;;;;2.88;1.30;;;2.80;41.60;;;;;;5114068;27;20560;-76
2021/12/07 04:36:11;;;;;;;2.65;1.25;;;2.80;41.20;;;;;;5115966;27;20044;-76
2021/12/07 04:38:42;;;;;;;3.13;1.65;;;2.80;41.20;;;;;;5117448;27;20118;-76
2021/12/07 04:41:10;;;;;;;2.72;1.48;;;2.80;41.20;;;;;;5090953;27;20047;-76
2021/12/07 04:43:40;;;;;;;3.65;1.52;;;2.90;41.30;;;;;;5126265;27;20142;-76
2021/12/07 04:46:14;;;;;;;2.15;1.50;;;2.90;41.20;;;;;;5119244;27;20165;-76
2021/12/07 04:49:19;;;;;;;5.30;1.55;;;3.00;40.60;;;;;;5118524;27;20510;-76
2021/12/07 05:00:03;;;;;;;2.88;1.45;;;3.00;38.70;;;;;;5117977;27;20067;-75
2021/12/07 05:02:32;;;;;;;2.75;1.35;;;3.00;36.70;;;;;;5120748;27;20039;-75
2021/12/07 05:05:01;;;;;;;2.55;0.93;;;2.90;35.60;;;;;;5118871;27;20051;-75
2021/12/07 05:07:34;;;;;;;1.63;1.15;;;2.90;35.00;;;;;;5123465;28;20510;-75
2021/12/07 05:10:16;;;;;;;2.65;1.10;;;2.80;34.80;;;;;;5120385;27;20051;-75
2021/12/07 05:13:10;;;;;;;5.95;1.88;;;2.70;34.80;;;;;;5119007;27;20570;-74
2021/12/07 05:18:39;;;;;;;3.42;1.42;;;2.70;34.40;;;;;;5119554;27;20058;-73
2021/12/07 05:24:04;;;;;;;2.78;1.48;;;2.80;33.90;;;;;;5082822;28;20074;-73
2021/12/07 05:37:49;;;;;;;3.65;1.95;;;2.90;33.90;;;;;;5124478;27;20086;-74
2021/12/07 05:40:20;;;;;;;2.30;1.50;;;2.90;34.10;;;;;;5107353;27;20082;-72
2021/12/07 05:42:50;;;;;;;5.47;2.38;;;2.90;33.50;;;;;;5122321;27;20055;-73
2021/12/07 05:45:20;;;;;;;5.18;2.00;;;3.00;33.40;;;;;;5123571;27;20130;-73
2021/12/07 05:47:48;;;;;;;4.72;2.03;;;3.00;32.50;;;;;;5122629;27;20131;-74
2021/12/07 05:50:21;;;;;;;6.05;2.50;;;3.10;32.30;;;;;;5119691;27;20111;-74
2021/12/07 05:52:49;;;;;;;5.20;2.58;;;3.10;32.30;;;;;;5127400;27;20043;-74
2021/12/07 05:55:18;;;;;;;7.97;1.98;;;3.20;32.40;;;;;;5124010;27;20062;-74
2021/12/07 05:57:46;;;;;;;4.80;2.47;;;3.20;32.40;;;;;;5127102;27;20066;-74
2021/12/07 06:00:24;;;;;;;4.78;2.05;;;3.30;32.50;;;;;;5100981;27;20563;-73
2021/12/07 06:02:52;;;;;;;10.88;2.70;;;3.30;32.40;;;;;;5126906;27;20123;-73
2021/12/07 06:05:22;;;;;;;9.93;5.80;;;3.40;32.30;;;;;;5126711;27;20047;-74
2021/12/07 06:07:50;;;;;;;7.07;2.60;;;3.40;31.80;;;;;;5110036;27;20051;-74
2021/12/07 06:10:19;;;;;;;8.48;2.40;;;3.40;31.50;;;;;;5113973;27;20129;-73
2021/12/07 06:12:47;;;;;;;6.75;2.15;;;3.50;30.50;;;;;;5127820;27;20082;-73
2021/12/07 06:15:19;;;;;;;5.57;2.33;;;3.50;30.00;;;;;;5121355;27;20047;-74
2021/12/07 06:17:48;;;;;;;10.65;2.35;;;3.50;29.00;;;;;;5123083;27;20399;-73
2021/12/07 06:20:19;;;;;;;6.43;2.25;;;3.50;29.10;;;;;;5120543;27;20492;-74
2021/12/07 06:23:07;;;;;;;6.45;2.22;;;3.50;28.80;;;;;;5101579;27;20051;-74
2021/12/07 06:25:35;;;;;;;7.75;2.70;;;3.50;29.30;;;;;;5119350;27;20049;-73
2021/12/07 06:28:05;;;;;;;5.10;2.50;;;3.50;28.90;;;;;;5124307;27;20035;-73
2021/12/07 06:30:38;;;;;;;4.38;1.92;;;3.60;28.90;;;;;;5115943;27;20141;-74
2021/12/07 06:33:06;;;;;;;10.30;2.10;;;3.60;28.90;;;;;;5112778;27;20036;-73
2021/12/07 06:35:34;;;;;;;4.78;2.08;;;3.60;28.00;;;;;;5102632;27;20069;-72
2021/12/07 06:38:02;;;;;;;5.95;2.40;;;3.60;27.80;;;;;;5121708;27;20032;-74
2021/12/07 06:40:30;;;;;;;10.55;2.10;;;3.70;25.80;;;;;;5123591;27;20043;-74
2021/12/07 06:43:00;;;;;;;6.80;2.25;;;3.70;25.60;;;;;;5127267;27;20520;-74
2021/12/07 06:45:31;;;;;;;7.47;2.10;;;3.80;25.60;;;;;;5125116;27;20043;-74
2021/12/07 06:48:00;;;;;;;6.25;1.85;;;3.70;25.60;;;;;;5123553;27;20082;-72
2021/12/07 06:50:28;;;;;;;7.30;1.92;;;3.70;26.10;;;;;;5122979;27;20071;-74
2021/12/07 06:52:56;;;;;;;10.05;2.30;;;3.70;26.50;;;;;;5110477;27;20048;-73
2021/12/07 06:55:24;;;;;;;4.78;1.60;;;3.70;27.20;;;;;;5116856;27;20050;-73
2021/12/07 06:57:52;;;;;;;6.60;2.08;;;3.70;26.70;;;;;;5121834;27;20039;-71
2021/12/07 07:00:21;;;;;;;7.93;2.08;;;3.70;27.00;;;;;;5120658;27;20069;-72
2021/12/07 07:02:59;;;;;;;3.42;1.85;;;3.70;27.10;;;;;;5122459;27;20086;-74
2021/12/07 07:05:27;;;;;;;4.50;1.98;;;3.70;28.30;;;;;;5116154;27;20046;-72
2021/12/07 07:07:55;;;;;;;7.70;2.70;;;3.60;28.70;;;;;;5117709;27;20067;-73
2021/12/07 07:10:24;;;;;;;4.43;2.13;;;3.60;29.00;;;;;;5119807;27;20051;-74
2021/12/07 07:12:52;;;;;;;9.95;2.58;;;3.50;29.60;;;;;;5122969;27;20099;-73
2021/12/07 07:15:20;;;;;;;6.82;2.47;;;3.50;30.90;;;;;;5126401;27;20539;-72
2021/12/07 07:17:48;;;;;;;5.53;2.65;;;3.40;31.20;;;;;;5122476;27;20494;-74
2021/12/07 07:20:18;;;;;;;18.40;2.55;;;3.40;32.50;;;;;;5118688;27;20123;-75
2021/12/07 07:22:46;;;;;;;8.80;3.38;;;3.40;31.30;;;;;;5119852;27;20043;-74
2021/12/07 07:25:15;;;;;;;7.05;2.30;;;3.40;32.20;;;;;;5118891;27;20527;-75
2021/12/07 07:27:44;;;;;;;7.93;2.78;;;3.50;31.40;;;;;;5119000;27;20398;-76
2021/12/07 07:30:15;;;;;;;7.75;2.85;;;3.60;30.20;;;;;;5117175;27;20084;-72
2021/12/07 07:32:45;;;;;;;7.55;2.20;;;3.70;29.60;;;;;;5114765;27;20040;-73
2021/12/07 07:35:16;;;;;;;11.40;3.10;;;3.70;29.80;;;;;;5121844;27;20043;-74
2021/12/07 07:37:46;;;;;;;13.38;2.28;;;3.70;29.30;;;;;;5101789;27;20427;-74
2021/12/07 07:40:17;;;;;;;7.13;2.20;;;3.70;29.80;;;;;;5104342;27;20134;-76
2021/12/07 07:42:45;;;;;;;6.60;2.47;;;3.70;29.70;;;;;;5121242;27;20481;-74
2021/12/07 07:45:14;;;;;;;7.45;2.33;;;3.70;30.30;;;;;;5118868;27;20121;-75
2021/12/07 07:47:42;;;;;;;4.72;2.05;;;3.80;30.40;;;;;;5118147;27;20051;-74
2021/12/07 07:50:12;;;;;;;7.18;2.72;;;3.70;30.40;;;;;;5115593;27;20073;-75
2021/12/07 07:52:42;;;;;;;6.80;2.42;;;3.70;29.20;;;;;;5101352;28;20096;-74
2021/12/07 07:55:12;;;;;;;7.38;2.17;;;3.70;27.90;;;;;;5121220;27;20047;-75
2021/12/07 07:57:40;;;;;;;6.20;2.22;;;3.70;28.30;;;;;;5122996;27;20043;-75
2021/12/07 08:00:11;;;;;;;4.22;2.22;;;3.70;28.50;;;;;;5109112;27;20157;-74
2021/12/07 08:02:39;;;;;;;6.30;2.30;;;3.80;28.40;;;;;;5120082;27;20038;-74
2021/12/07 08:05:08;;;;;;;6.82;2.33;;;3.80;27.90;;;;;;5121715;27;20054;-74
2021/12/07 08:07:37;;;;;;;8.75;3.17;;;3.80;27.80;;;;;;5098412;27;20051;-74
2021/12/07 08:10:08;;;;;;;18.88;2.78;;;3.90;27.50;;;;;;5117561;27;20531;-74
2021/12/07 08:12:37;;;;;;;7.32;2.10;;;3.90;25.70;;;;;;5119753;27;20043;-75
2021/12/07 08:15:07;;;;;;;2.63;1.70;;;3.80;25.60;;;;;;5119443;27;20146;-75
2021/12/07 08:17:35;;;;;;;9.82;2.22;;;3.90;25.90;;;;;;5123231;27;20061;-75
2021/12/07 08:20:05;;;;;;;12.45;2.80;;;3.90;25.10;;;;;;5117932;27;20131;-74
2021/12/07 08:22:33;;;;;;;8.40;2.35;;;3.90;25.10;;;;;;5124359;27;20050;-75
2021/12/07 08:25:04;;;;;;;6.95;3.00;;;4.00;24.70;;;;;;5116284;27;20181;-74
2021/12/07 08:27:32;;;;;;;4.72;2.13;;;4.00;24.00;;;;;;5118950;27;20046;-75
2021/12/07 08:30:01;;;;;;;8.63;2.33;;;4.10;24.00;;;;;;5114480;27;20036;-75
2021/12/07 08:32:29;;;;;;;10.93;2.90;;;4.10;24.30;;;;;;5113398;27;20047;-75
2021/12/07 08:34:57;;;;;;;9.70;2.05;;;4.00;22.40;;;;;;5117605;27;20035;-74
2021/12/07 08:37:25;;;;;;;11.23;2.42;;;4.10;23.40;;;;;;5116889;27;20066;-75
2021/12/07 08:39:55;;;;;;;6.10;2.28;;;4.10;22.50;;;;;;5111913;27;20059;-74
2021/12/07 08:42:23;;;;;;;9.50;2.08;;;4.10;21.10;;;;;;5110382;27;20131;-73
2021/12/07 08:44:51;;;;;;;9.63;2.38;;;4.10;21.30;;;;;;5118170;27;20323;-73
2021/12/07 08:47:20;;;;;;;5.72;2.10;;;4.10;21.20;;;;;;5118864;27;20052;-74
2021/12/07 08:50:12;;;;;;;6.35;1.77;;;4.20;21.30;;;;;;5116713;27;20506;-73
2021/12/07 08:52:42;;;;;;;5.10;2.28;;;4.20;20.30;;;;;;5118995;27;20039;-74
2021/12/07 09:00:45;;;;;;;6.63;2.50;;;4.30;19.80;;;;;;5122186;27;20112;-73
2021/12/07 09:03:15;;;;;;;7.53;2.13;;;4.30;20.30;;;;;;5119788;28;20043;-73
2021/12/07 09:05:43;;;;;;;15.40;7.00;;;4.30;19.10;;;;;;5081228;28;20039;-73
2021/12/07 09:08:11;;;;;;;7.20;2.10;;;4.30;19.20;;;;;;5113039;27;20066;-74
2021/12/07 09:10:39;;;;;;;8.18;2.20;;;4.40;19.20;;;;;;5105531;27;20052;-73
2021/12/07 09:13:09;;;;;;;7.70;1.90;;;4.30;18.50;;;;;;5109748;27;20048;-75
2021/12/07 09:15:38;;;;;;;6.80;1.75;;;4.40;19.20;;;;;;5105176;28;20455;-73
2021/12/07 09:18:06;;;;;;;9.60;2.15;;;4.40;19.20;;;;;;5118282;27;20047;-73
2021/12/07 09:20:36;;;;;;;7.00;2.28;;;4.30;18.10;;;;;;5117810;27;20486;-74
2021/12/07 09:23:05;;;;;;;7.05;2.25;;;4.20;18.10;;;;;;5108806;28;20078;-74
2021/12/07 09:25:33;;;;;;;7.95;2.08;;;4.30;18.50;;;;;;5113722;27;20043;-75
2021/12/07 09:28:01;;;;;;;9.85;2.10;;;4.20;18.30;;;;;;5118520;27;20043;-73
2021/12/07 09:30:29;;;;;;;8.35;1.95;;;4.30;17.90;;;;;;5120968;27;20048;-73
2021/12/07 09:32:58;;;;;;;4.93;2.40;;;4.40;17.00;;;;;;5089288;27;20063;-74
2021/12/07 09:35:26;;;;;;;6.93;1.90;;;4.60;16.40;;;;;;5119439;28;20092;-74
2021/12/07 09:37:56;;;;;;;10.05;2.00;;;4.70;15.80;;;;;;5116672;27;21709;-73
2021/12/07 09:40:28;;;;;;;7.57;2.38;;;4.80;14.60;;;;;;5119841;27;20080;-74
2021/12/07 09:42:57;;;;;;;8.80;1.42;;;5.00;14.10;;;;;;5124567;27;20039;-75
2021/12/07 09:45:30;;;;;;;6.30;2.10;;;5.00;11.10;;;;;;5106752;27;20128;-74
2021/12/07 09:48:00;;;;;;;8.45;1.98;;;5.10;10.30;;;;;;5106756;28;20500;-74
2021/12/07 09:50:30;;;;;;;8.75;2.08;;;5.20;9.80;;;;;;5099824;28;20514;-75
2021/12/07 09:52:59;;;;;;;7.18;2.20;;;5.30;9.20;;;;;;5098255;28;20144;-74
2021/12/07 09:55:29;;;;;;;9.20;1.80;;;5.40;8.50;;;;;;5099848;27;20071;-72
2021/12/07 09:57:57;;;;;;;6.10;1.60;;;5.30;5.50;;;;;;5109737;28;20131;-74
2021/12/07 10:00:26;;;;;;;5.63;1.50;;;5.20;4.00;;;;;;5115509;27;20100;-76
2021/12/07 10:02:55;;;;;;;5.82;1.30;;;5.30;5.50;;;;;;5124770;27;20044;-74
2021/12/07 10:05:26;;;;;;;5.22;1.50;;;5.50;5.20;;;;;;5118568;27;20166;-74
2021/12/07 10:07:54;;;;;;;5.65;1.70;;;5.40;3.50;;;;;;5118137;27;20051;-74
2021/12/07 10:10:27;;;;;;;10.25;1.88;;;5.40;3.20;;;;;;5118396;28;20135;-74
2021/12/07 10:12:55;;;;;;;3.22;1.52;;;5.10;3.90;;;;;;5119380;27;20055;-75
2021/12/07 10:15:25;;;;;;;2.63;1.38;;;5.10;4.70;;;;;;5117799;27;20047;-74
2021/12/07 10:18:03;;;;;;;8.32;1.77;;;5.20;4.90;;;;;;5120399;27;20089;-78
2021/12/07 10:20:39;;;;;;;7.65;1.88;;;5.10;3.60;;;;;;5123201;27;20027;-75
2021/12/07 10:23:25;;;;;;;5.80;1.20;;;5.20;4.20;;;;;;5127359;27;20102;-74
2021/12/07 10:26:00;;;;;;;8.20;1.40;;;5.30;4.00;;;;;;5125690;27;20057;-75
2021/12/07 10:28:30;;;;;;;6.93;1.52;;;5.30;3.00;;;;;;5117810;27;20039;-75
2021/12/07 10:31:03;;;;;;;6.90;1.60;;;5.40;2.90;;;;;;5122680;27;20620;-76
2021/12/07 10:33:33;;;;;;;10.00;1.30;;;5.30;1.00;;;;;;5125119;27;20050;-74
2021/12/07 10:36:11;;;;;;;6.60;1.30;;;5.30;1.00;;;;;;5125809;27;20554;-75
2021/12/07 10:38:41;;;;;;;3.80;1.30;;;5.40;1.00;;;;;;5124812;27;20134;-75
2021/12/07 10:41:15;;;;;;;5.13;2.10;;;5.50;1.00;;;;;;5118330;27;20515;-74
2021/12/07 10:43:47;;;;;;;9.70;1.60;;;5.50;1.00;;;;;;5126971;27;20051;-75
2021/12/07 10:46:32;;;;;;;8.20;1.67;;;5.50;1.00;;;;;;5120952;27;20039;-74
2021/12/07 10:49:29;;;;;;;7.97;1.25;;;5.50;1.00;;;;;;5123200;27;20046;-75
2021/12/07 10:52:03;;;;;;;3.72;1.30;;;5.50;1.00;;;;;;5120114;27;20485;-74
2021/12/07 10:54:34;;;;;;;7.03;1.40;;;5.60;1.00;;;;;;5091945;27;20043;-74
2021/12/07 10:57:06;;;;;;;5.47;1.80;;;5.70;1.00;;;;;;5123163;27;20103;-74
2021/12/07 10:59:35;;;;;;;7.72;1.20;;;5.70;1.00;;;;;;5120862;27;20058;-74
2021/12/07 11:02:15;;;;;;;6.95;2.13;;;5.80;1.00;;;;;;5130338;27;20066;-75
2021/12/07 11:04:44;;;;;;;6.60;1.88;;;5.80;1.00;;;;;;5126134;27;20053;-75
2021/12/07 11:07:16;;;;;;;11.15;2.50;;;5.70;1.00;;;;;;5122386;27;20088;-75
2021/12/07 11:09:51;;;;;;;5.95;1.95;;;5.70;1.00;;;;;;5120921;27;20125;-75
2021/12/07 11:12:21;;;;;;;4.35;1.70;;;5.80;1.00;;;;;;5122934;27;20100;-75
2021/12/07 11:14:53;;;;;;;4.35;1.20;;;6.10;1.00;;;;;;5121678;27;20108;-76
2021/12/07 11:17:26;;;;;;;8.25;1.73;;;6.20;1.00;;;;;;5119512;27;20039;-74
2021/12/07 11:19:55;;;;;;;7.05;1.80;;;6.00;1.00;;;;;;5101844;27;20104;-73
2021/12/07 11:22:31;;;;;;;5.25;1.50;;;6.10;1.00;;;;;;5120078;27;20148;-75
2021/12/07 11:25:03;;;;;;;5.60;1.52;;;6.20;1.00;;;;;;5122737;27;20061;-75
2021/12/07 11:30:21;;;;;;;7.55;1.38;;;6.20;1.00;;;;;;5117950;27;20154;-73
2021/12/07 11:32:56;;;;;;;8.93;1.70;;;6.60;1.00;;;;;;5120372;27;20487;-74
2021/12/07 11:35:27;;;;;;;8.07;1.80;;;6.70;1.00;;;;;;5118863;27;20043;-75
2021/12/07 11:37:57;;;;;;;4.40;1.55;;;6.50;1.00;;;;;;5098594;27;20104;-74
2021/12/07 11:40:28;;;;;;;4.72;1.13;;;6.50;1.00;;;;;;5115991;27;20047;-74
2021/12/07 11:42:57;;;;;;;5.10;1.42;;;6.60;1.00;;;;;;5118845;27;20043;-75
2021/12/07 11:45:27;;;;;;;6.82;2.15;;;6.40;1.00;;;;;;5100163;27;20070;-74
2021/12/07 11:47:58;;;;;;;4.13;1.45;;;6.10;1.00;;;;;;5119668;27;20066;-74
2021/12/07 11:50:31;;;;;;;3.95;1.58;;;6.00;1.00;;;;;;5111855;27;20418;-75
2021/12/07 11:53:01;;;;;;;5.38;1.52;;;5.90;1.00;;;;;;5120739;27;20054;-74
2021/12/07 11:55:31;;;;;;;5.32;1.58;;;5.70;1.00;;;;;;5124769;27;20047;-72
2021/12/07 11:58:01;;;;;;;7.60;1.42;;;5.80;1.00;;;;;;5121522;27;20070;-73
2021/12/07 12:00:35;;;;;;;2.53;1.10;;;5.80;1.00;;;;;;5125179;27;20035;-73
2021/12/07 12:03:07;;;;;;;10.23;1.55;;;5.80;1.00;;;;;;5124329;27;20050;-73
2021/12/07 12:05:38;;;;;;;4.00;1.10;;;5.90;1.00;;;;;;5121888;27;20130;-74
2021/12/07 12:08:08;;;;;;;6.22;1.30;;;5.90;1.00;;;;;;5116396;27;20539;-74
2021/12/07 12:10:44;;;;;;;6.88;1.48;;;5.80;1.00;;;;;;5098966;27;20079;-74
2021/12/07 12:13:27;;;;;;;8.07;1.77;;;5.70;1.00;;;;;;5121389;27;20047;-74
2021/12/07 12:16:08;;;;;;;5.00;1.55;;;5.80;1.00;;;;;;5117894;27;20047;-74
2021/12/07 12:18:45;;;;;;;5.22;1.55;;;5.80;1.00;;;;;;5118835;27;20123;-74
2021/12/07 12:21:25;;;;;;;5.75;1.55;;;5.80;1.00;;;;;;5123603;27;20138;-74
2021/12/07 12:24:06;;;;;;;6.47;1.35;;;5.70;1.00;;;;;;5123003;27;20035;-75
2021/12/07 12:26:36;;;;;;;7.93;2.28;;;5.80;1.00;;;;;;5100222;27;20134;-75
2021/12/07 12:29:17;;;;;;;5.85;1.55;;;5.70;1.00;;;;;;5117162;27;20130;-75
2021/12/07 12:31:51;;;;;;;7.78;1.88;;;5.70;1.00;;;;;;5123046;27;20070;-75
2021/12/07 12:34:22;;;;;;;3.00;1.17;;;5.70;1.00;;;;;;5122083;27;20502;-74
2021/12/07 12:37:04;;;;;;;6.50;1.30;;;5.60;1.00;;;;;;5119997;27;20128;-75
2021/12/07 12:39:48;;;;;;;7.45;1.40;;;5.60;1.00;;;;;;5120480;27;20073;-74
2021/12/07 12:42:31;;;;;;;4.35;1.40;;;5.60;1.00;;;;;;5124478;27;20121;-74
2021/12/07 12:45:19;;;;;;;8.50;1.92;;;5.50;1.00;;;;;;5124134;27;20490;-75
2021/12/07 12:47:54;;;;;;;5.13;1.40;;;5.40;1.00;;;;;;5119917;27;20045;-75
2021/12/07 12:50:25;;;;;;;3.28;1.25;;;5.40;1.00;;;;;;5119257;27;20074;-75
2021/12/07 12:52:57;;;;;;;6.40;1.50;;;5.40;1.00;;;;;;5124563;27;20496;-74
2021/12/07 12:55:42;;;;;;;5.18;1.55;;;5.30;1.00;;;;;;5120349;27;20046;-74
2021/12/07 12:58:18;;;;;;;12.88;1.58;;;5.30;1.00;;;;;;5119390;27;20078;-73
2021/12/07 13:01:08;;;;;;;13.25;2.08;;;5.30;1.00;;;;;;5121124;27;20077;-74
2021/12/07 13:04:08;;;;;;;6.68;1.10;;;5.30;1.00;;;;;;5122570;27;20053;-74
2021/12/07 13:06:54;;;;;;;2.58;1.00;;;5.30;1.00;;;;;;5098951;28;20475;-74
2021/12/07 13:09:29;;;;;;;4.78;1.02;;;5.40;1.00;;;;;;5118808;28;20078;-73
2021/12/07 13:12:00;;;;;;;4.97;1.40;;;5.40;1.00;;;;;;5122866;27;20066;-74
2021/12/07 13:14:38;;;;;;;8.52;2.08;;;5.50;1.00;;;;;;5121055;28;20250;-75
2021/12/07 13:17:16;;;;;;;6.75;1.83;;;5.70;1.00;;;;;;5117317;27;20122;-76
2021/12/07 13:20:24;;;;;;;3.25;1.38;;;5.70;1.00;;;;;;5118937;27;20040;-73
2021/12/07 13:23:02;;;;;;;4.05;1.50;;;5.80;1.00;;;;;;5102294;28;20047;-75
2021/12/07 13:25:32;;;;;;;4.68;1.85;;;5.70;1.00;;;;;;5122548;28;20558;-75
2021/12/07 13:28:28;;;;;;;8.10;1.92;;;5.70;1.00;;;;;;5116022;27;20042;-75
2021/12/07 13:31:01;;;;;;;5.18;1.40;;;5.70;1.00;;;;;;5120890;27;20035;-75
2021/12/07 13:33:38;;;;;;;4.53;1.55;;;5.70;1.00;;;;;;5116665;27;20050;-75
2021/12/07 13:36:30;;;;;;;5.38;1.25;;;5.70;1.00;;;;;;5120804;28;20078;-75
2021/12/07 13:39:07;;;;;;;4.57;1.55;;;5.80;1.00;;;;;;5119170;28;20046;-75
2021/12/07 13:41:36;;;;;;;10.85;2.28;;;5.90;1.00;;;;;;5123228;27;20099;-76
2021/12/07 13:44:10;;;;;;;10.35;3.92;;;6.00;1.00;;;;;;5114745;27;20137;-76
2021/12/07 13:46:38;;;;;;;4.20;1.27;;;6.10;1.00;;;;;;5118386;27;20057;-75
2021/12/07 13:49:09;;;;;;;5.10;1.33;;;6.10;1.00;;;;;;5116149;27;20047;-75
2021/12/07 13:51:39;;;;;;;4.50;1.35;;;6.20;1.00;;;;;;5124681;27;20063;-75
2021/12/07 13:54:14;;;;;;;2.72;1.10;;;6.20;1.00;;;;;;5126146;27;20126;-75
2021/12/07 13:56:42;;;;;;;3.20;1.20;;;6.10;1.00;;;;;;5121048;27;20054;-75
2021/12/07 13:59:13;;;;;;;3.58;1.48;;;6.00;1.00;;;;;;5123226;27;20194;-75
2021/12/07 14:01:49;;;;;;;6.18;1.42;;;5.90;1.00;;;;;;5125150;27;20150;-75
2021/12/07 14:04:19;;;;;;;10.38;2.20;;;5.80;1.00;;;;;;5122108;27;20043;-75
2021/12/07 14:06:48;;;;;;;10.63;1.38;;;5.70;1.00;;;;;;5124100;27;20039;-74
2021/12/07 14:09:17;;;;;;;4.80;1.23;;;5.80;1.00;;;;;;5121827;27;20090;-74
2021/12/07 14:11:53;;;;;;;3.90;1.42;;;5.70;1.00;;;;;;5125717;27;20114;-74
2021/12/07 14:14:21;;;;;;;5.70;1.48;;;5.70;1.00;;;;;;5106908;27;20090;-75
2021/12/07 14:16:50;;;;;;;4.93;1.23;;;5.60;1.00;;;;;;5120666;27;20132;-75
2021/12/07 14:19:20;;;;;;;3.72;1.10;;;5.60;1.00;;;;;;5125584;27;20042;-73
2021/12/07 14:21:49;;;;;;;4.50;1.15;;;5.60;1.00;;;;;;5126010;27;20498;-75
2021/12/07 14:24:19;;;;;;;4.43;1.35;;;5.60;1.00;;;;;;5126630;27;20518;-75
2021/12/07 14:26:51;;;;;;;6.20;1.20;;;5.70;1.00;;;;;;5123468;27;20062;-74
2021/12/07 14:29:22;;;;;;;6.38;1.60;;;5.70;1.00;;;;;;5119343;27;20035;-75
2021/12/07 14:31:52;;;;;;;9.07;2.00;;;5.60;1.00;;;;;;5125173;27;20561;-74
2021/12/07 14:34:24;;;;;;;4.07;1.20;;;5.60;1.00;;;;;;5126629;27;20047;-73
2021/12/07 14:36:55;;;;;;;2.30;1.20;;;5.60;1.00;;;;;;5123321;27;20046;-76
2021/12/07 14:39:27;;;;;;;14.70;7.40;;;5.50;1.00;;;;;;5105699;27;20031;-74